sensor_id;sensor_type;location;lat;lon;timestamp;pressure;altitude;pressure_sealevel;temperature;humidity
57374;BME280;43964;53.890;25.340;2022-08-01T00:00:38;1016.8;;;19.6;84.4
57374;BME280;43964;53.890;25.340;2022-08-01T00:05:38;1016.8;;;19.7;84.5
57374;BME280;43964;53.890;25.340;2022-08-01T00:10:38;1016.8;;;19.7;84.6
57374;BME280;43964;53.890;25.340;2022-08-01T00:15:38;1016.7;;;19.7;84.6
57374;BME280;43964;53.890;25.340;2022-08-01T00:20:38;1016.7;;;19.8;84.3
57374;BME280;43964;53.890;25.340;2022-08-01T00:25:38;1016.7;;;19.8;84.2
57374;BME280;43964;53.890;25.340;2022-08-01T00:30:38;1016.7;;;19.8;83.9
57374;BME280;43964;53.890;25.340;2022-08-01T00:35:38;1016.7;;;19.9;83.6
57374;BME280;43964;53.890;25.340;2022-08-01T00:40:38;1016.7;;;19.9;83.2
57374;BME280;43964;53.890;25.340;2022-08-01T00:45:38;1016.7;;;19.9;82.8
57374;BME280;43964;53.890;25.340;2022-08-01T00:50:38;1016.7;;;20;82
57374;BME280;43964;53.890;25.340;2022-08-01T00:55:38;1016.7;;;20.1;81.8
57374;BME280;43964;53.890;25.340;2022-08-01T01:00:38;1016.7;;;20.2;80.8
57374;BME280;43964;53.890;25.340;2022-08-01T01:05:43;1016.7;;;20.2;80.7
57374;BME280;43964;53.890;25.340;2022-08-01T01:10:46;1016.7;;;20.2;80.4
57374;BME280;43964;53.890;25.340;2022-08-01T01:15:40;1016.6;;;20.1;80.4
57374;BME280;43964;53.890;25.340;2022-08-01T01:20:40;1016.6;;;20.1;80.2
57374;BME280;43964;53.890;25.340;2022-08-01T01:30:38;1016.6;;;20.2;79.8
57374;BME280;43964;53.890;25.340;2022-08-01T01:35:38;1016.6;;;20.2;80
57374;BME280;43964;53.890;25.340;2022-08-01T01:40:38;1016.6;;;20.1;80.4
57374;BME280;43964;53.890;25.340;2022-08-01T01:45:39;1016.5;;;20;80.5
57374;BME280;43964;53.890;25.340;2022-08-01T01:50:38;1016.5;;;20;80.5
57374;BME280;43964;53.890;25.340;2022-08-01T01:55:38;1016.5;;;20;80.6
57374;BME280;43964;53.890;25.340;2022-08-01T02:00:38;1016.4;;;20;80.3
57374;BME280;43964;53.890;25.340;2022-08-01T02:05:38;1016.4;;;20;80.1
57374;BME280;43964;53.890;25.340;2022-08-01T02:10:38;1016.4;;;19.9;80.1
57374;BME280;43964;53.890;25.340;2022-08-01T02:15:38;1016.4;;;19.9;80.5
57374;BME280;43964;53.890;25.340;2022-08-01T02:20:38;1016.4;;;19.8;80.5
57374;BME280;43964;53.890;25.340;2022-08-01T02:25:39;1016.4;;;19.8;80.2
57374;BME280;43964;53.890;25.340;2022-08-01T02:30:39;1016.4;;;19.8;80.3
57374;BME280;43964;53.890;25.340;2022-08-01T02:35:38;1016.4;;;19.8;80.4
57374;BME280;43964;53.890;25.340;2022-08-01T02:40:38;1016.5;;;19.9;80.1
57374;BME280;43964;53.890;25.340;2022-08-01T02:45:39;1016.5;;;19.9;79.9
57374;BME280;43964;53.890;25.340;2022-08-01T02:50:38;1016.5;;;19.9;80
57374;BME280;43964;53.890;25.340;2022-08-01T02:55:38;1016.5;;;19.9;79.7
57374;BME280;43964;53.890;25.340;2022-08-01T03:00:38;1016.5;;;19.9;79.8
57374;BME280;43964;53.890;25.340;2022-08-01T03:05:38;1016.5;;;19.9;79.1
57374;BME280;43964;53.890;25.340;2022-08-01T03:10:38;1016.5;;;19.9;79.4
57374;BME280;43964;53.890;25.340;2022-08-01T03:15:38;1016.5;;;19.9;79.9
57374;BME280;43964;53.890;25.340;2022-08-01T03:20:38;1016.4;;;19.9;79.5
57374;BME280;43964;53.890;25.340;2022-08-01T03:25:39;1016.5;;;19.8;80.1
57374;BME280;43964;53.890;25.340;2022-08-01T03:30:38;1016.4;;;19.8;80.3
57374;BME280;43964;53.890;25.340;2022-08-01T03:35:39;1016.4;;;19.8;80.2
57374;BME280;43964;53.890;25.340;2022-08-01T03:40:40;1016.5;;;19.8;80.1
57374;BME280;43964;53.890;25.340;2022-08-01T03:45:38;1016.5;;;19.9;80.2
57374;BME280;43964;53.890;25.340;2022-08-01T03:50:39;1016.5;;;19.9;80
57374;BME280;43964;53.890;25.340;2022-08-01T03:55:38;1016.5;;;19.9;80.1
57374;BME280;43964;53.890;25.340;2022-08-01T04:00:38;1016.4;;;19.9;80
57374;BME280;43964;53.890;25.340;2022-08-01T04:05:40;1016.4;;;19.9;80.2
57374;BME280;43964;53.890;25.340;2022-08-01T04:10:38;1016.4;;;19.9;80.2
57374;BME280;43964;53.890;25.340;2022-08-01T04:15:38;1016.4;;;19.9;80.2
57374;BME280;43964;53.890;25.340;2022-08-01T04:20:38;1016.4;;;19.9;80.5
57374;BME280;43964;53.890;25.340;2022-08-01T04:25:38;1016.4;;;19.9;80.3
57374;BME280;43964;53.890;25.340;2022-08-01T04:30:38;1016.5;;;19.9;80.5
57374;BME280;43964;53.890;25.340;2022-08-01T04:35:38;1016.5;;;19.9;80.2
57374;BME280;43964;53.890;25.340;2022-08-01T04:40:38;1016.5;;;20;79.9
57374;BME280;43964;53.890;25.340;2022-08-01T04:45:38;1016.5;;;20.1;79.4
57374;BME280;43964;53.890;25.340;2022-08-01T04:50:38;1016.5;;;20.1;79.1
57374;BME280;43964;53.890;25.340;2022-08-01T04:55:38;1016.5;;;20.2;78.3
57374;BME280;43964;53.890;25.340;2022-08-01T05:00:38;1016.4;;;20.3;77.3
57374;BME280;43964;53.890;25.340;2022-08-01T05:05:38;1016.4;;;20.4;76.6
57374;BME280;43964;53.890;25.340;2022-08-01T05:10:38;1016.4;;;20.5;76.8
57374;BME280;43964;53.890;25.340;2022-08-01T05:15:38;1016.4;;;20.6;75.8
57374;BME280;43964;53.890;25.340;2022-08-01T05:20:38;1016.4;;;20.7;75.9
57374;BME280;43964;53.890;25.340;2022-08-01T05:25:38;1016.5;;;20.7;75.9
57374;BME280;43964;53.890;25.340;2022-08-01T05:30:38;1016.5;;;20.7;75.8
57374;BME280;43964;53.890;25.340;2022-08-01T05:35:38;1016.5;;;20.8;75.8
57374;BME280;43964;53.890;25.340;2022-08-01T05:40:38;1016.5;;;20.9;75.5
57374;BME280;43964;53.890;25.340;2022-08-01T05:45:38;1016.5;;;20.9;75.6
57374;BME280;43964;53.890;25.340;2022-08-01T05:50:38;1016.5;;;20.9;75.6
57374;BME280;43964;53.890;25.340;2022-08-01T05:55:38;1016.5;;;20.8;75.3
57374;BME280;43964;53.890;25.340;2022-08-01T06:00:38;1016.6;;;20.8;75.2
57374;BME280;43964;53.890;25.340;2022-08-01T06:05:38;1016.6;;;20.9;74.8
57374;BME280;43964;53.890;25.340;2022-08-01T06:10:38;1016.6;;;20.9;74.9
57374;BME280;43964;53.890;25.340;2022-08-01T06:15:38;1016.6;;;20.9;74.7
57374;BME280;43964;53.890;25.340;2022-08-01T06:20:38;1016.6;;;20.9;75.6
57374;BME280;43964;53.890;25.340;2022-08-01T06:25:38;1016.6;;;20.9;76.2
57374;BME280;43964;53.890;25.340;2022-08-01T06:30:38;1016.7;;;20.8;76.6
57374;BME280;43964;53.890;25.340;2022-08-01T06:35:38;1016.8;;;20.7;75.7
57374;BME280;43964;53.890;25.340;2022-08-01T06:40:38;1016.8;;;20.7;74.7
57374;BME280;43964;53.890;25.340;2022-08-01T06:45:38;1016.9;;;20.7;73.7
57374;BME280;43964;53.890;25.340;2022-08-01T06:50:38;1017;;;20.8;73.2
57374;BME280;43964;53.890;25.340;2022-08-01T06:55:38;1017;;;20.9;72.4
57374;BME280;43964;53.890;25.340;2022-08-01T07:00:38;1017;;;21;71.9
57374;BME280;43964;53.890;25.340;2022-08-01T07:05:38;1017;;;21.2;71.7
57374;BME280;43964;53.890;25.340;2022-08-01T07:10:38;1017.1;;;21.3;71.9
57374;BME280;43964;53.890;25.340;2022-08-01T07:15:38;1017.1;;;21.4;70.5
57374;BME280;43964;53.890;25.340;2022-08-01T07:20:38;1017.1;;;21.5;69.6
57374;BME280;43964;53.890;25.340;2022-08-01T07:25:38;1017.1;;;21.6;69.3
57374;BME280;43964;53.890;25.340;2022-08-01T07:30:38;1017.2;;;21.8;68.8
57374;BME280;43964;53.890;25.340;2022-08-01T07:35:38;1017.2;;;21.8;68.8
57374;BME280;43964;53.890;25.340;2022-08-01T07:40:38;1017.2;;;22;67.4
57374;BME280;43964;53.890;25.340;2022-08-01T07:45:38;1017.2;;;22.1;67.5
57374;BME280;43964;53.890;25.340;2022-08-01T07:50:38;1017.3;;;22.1;67.7
57374;BME280;43964;53.890;25.340;2022-08-01T07:55:38;1017.3;;;22.2;67.6
57374;BME280;43964;53.890;25.340;2022-08-01T08:00:38;1017.3;;;21.9;67.8
57374;BME280;43964;53.890;25.340;2022-08-01T08:05:38;1017.3;;;21.9;68
57374;BME280;43964;53.890;25.340;2022-08-01T08:10:38;1017.3;;;21.8;68.1
57374;BME280;43964;53.890;25.340;2022-08-01T08:15:38;1017.3;;;22;66.9
57374;BME280;43964;53.890;25.340;2022-08-01T08:20:38;1017.3;;;22.2;65.9
57374;BME280;43964;53.890;25.340;2022-08-01T08:25:38;1017.3;;;22.7;65.6
57374;BME280;43964;53.890;25.340;2022-08-01T08:30:38;1017.4;;;22.9;64.6
57374;BME280;43964;53.890;25.340;2022-08-01T08:35:39;1017.4;;;23;64.4
57374;BME280;43964;53.890;25.340;2022-08-01T08:40:40;1017.4;;;22.9;63.6
57374;BME280;43964;53.890;25.340;2022-08-01T08:45:39;1017.4;;;22.9;63.3
57374;BME280;43964;53.890;25.340;2022-08-01T08:50:38;1017.5;;;23.1;63.7
57374;BME280;43964;53.890;25.340;2022-08-01T08:55:39;1017.5;;;23.2;63.3
57374;BME280;43964;53.890;25.340;2022-08-01T09:00:39;1017.6;;;23.3;62.5
57374;BME280;43964;53.890;25.340;2022-08-01T09:05:38;1017.6;;;23.2;62.1
57374;BME280;43964;53.890;25.340;2022-08-01T09:10:38;1017.7;;;23.2;62.1
57374;BME280;43964;53.890;25.340;2022-08-01T09:15:39;1017.8;;;23.4;61.8
57374;BME280;43964;53.890;25.340;2022-08-01T09:20:38;1017.8;;;23.4;60.7
57374;BME280;43964;53.890;25.340;2022-08-01T09:25:54;1017.8;;;23.4;60.7
57374;BME280;43964;53.890;25.340;2022-08-01T09:30:38;1017.8;;;24.3;59
57374;BME280;43964;53.890;25.340;2022-08-01T09:35:38;1017.8;;;24.3;58.2
57374;BME280;43964;53.890;25.340;2022-08-01T09:41:09;1018;;;24.1;59.5
57374;BME280;43964;53.890;25.340;2022-08-01T09:45:38;1018;;;24.1;59.3
57374;BME280;43964;53.890;25.340;2022-08-01T09:50:38;1018;;;24;59.2
57374;BME280;43964;53.890;25.340;2022-08-01T09:55:38;1018;;;23.9;58.4
57374;BME280;43964;53.890;25.340;2022-08-01T10:00:38;1018;;;23.9;58
57374;BME280;43964;53.890;25.340;2022-08-01T10:05:38;1018;;;23.9;58.4
57374;BME280;43964;53.890;25.340;2022-08-01T10:10:38;1018;;;24.1;58.5
57374;BME280;43964;53.890;25.340;2022-08-01T10:15:38;1018;;;24.4;57.9
57374;BME280;43964;53.890;25.340;2022-08-01T10:20:38;1018;;;24.8;57.1
57374;BME280;43964;53.890;25.340;2022-08-01T10:25:40;1018;;;25.1;55.3
57374;BME280;43964;53.890;25.340;2022-08-01T10:30:38;1018.1;;;25.2;54.8
57374;BME280;43964;53.890;25.340;2022-08-01T10:35:38;1018.1;;;25.1;54.8
57374;BME280;43964;53.890;25.340;2022-08-01T10:40:38;1018.2;;;24.6;56.1
57374;BME280;43964;53.890;25.340;2022-08-01T10:45:38;1018.2;;;24.3;56.4
57374;BME280;43964;53.890;25.340;2022-08-01T10:50:46;1018.2;;;24;57
57374;BME280;43964;53.890;25.340;2022-08-01T10:55:47;1018.3;;;23.6;57.4
57374;BME280;43964;53.890;25.340;2022-08-01T11:00:38;1018.3;;;23.3;58.4
57374;BME280;43964;53.890;25.340;2022-08-01T11:05:38;1018.4;;;23.1;59.1
57374;BME280;43964;53.890;25.340;2022-08-01T11:10:39;1018.4;;;23.1;59.1
57374;BME280;43964;53.890;25.340;2022-08-01T11:15:38;1018.3;;;23.1;59.4
57374;BME280;43964;53.890;25.340;2022-08-01T11:20:38;1018.3;;;23.1;59.3
57374;BME280;43964;53.890;25.340;2022-08-01T11:26:09;1018.4;;;23;59.5
57374;BME280;43964;53.890;25.340;2022-08-01T11:30:38;1018.4;;;22.9;59.5
57374;BME280;43964;53.890;25.340;2022-08-01T11:35:39;1018.4;;;22.8;60.1
57374;BME280;43964;53.890;25.340;2022-08-01T11:40:38;1018.5;;;22.8;60.4
57374;BME280;43964;53.890;25.340;2022-08-01T11:45:54;1018.5;;;22.9;60
57374;BME280;43964;53.890;25.340;2022-08-01T11:50:38;1018.5;;;23.1;59.7
57374;BME280;43964;53.890;25.340;2022-08-01T11:55:38;1018.6;;;23.4;59.5
57374;BME280;43964;53.890;25.340;2022-08-01T12:00:38;1018.6;;;23.6;59.2
57374;BME280;43964;53.890;25.340;2022-08-01T12:05:38;1018.6;;;23.4;59.6
57374;BME280;43964;53.890;25.340;2022-08-01T12:10:38;1018.6;;;23.2;59.7
57374;BME280;43964;53.890;25.340;2022-08-01T12:15:38;1018.6;;;23.3;59.7
57374;BME280;43964;53.890;25.340;2022-08-01T12:20:39;1018.6;;;23.3;59.3
57374;BME280;43964;53.890;25.340;2022-08-01T12:25:38;1018.6;;;23.3;59.4
57374;BME280;43964;53.890;25.340;2022-08-01T12:30:38;1018.6;;;23.4;59.2
57374;BME280;43964;53.890;25.340;2022-08-01T12:35:38;1018.5;;;23.7;58.9
57374;BME280;43964;53.890;25.340;2022-08-01T12:40:40;1018.5;;;24.5;57
57374;BME280;43964;53.890;25.340;2022-08-01T12:45:38;1018.5;;;25.3;55.2
57374;BME280;43964;53.890;25.340;2022-08-01T12:50:38;1018.5;;;25.6;54.4
57374;BME280;43964;53.890;25.340;2022-08-01T12:55:54;1018.5;;;25.2;54.9
57374;BME280;43964;53.890;25.340;2022-08-01T13:00:38;1018.5;;;24.8;55.8
57374;BME280;43964;53.890;25.340;2022-08-01T13:05:54;1018.5;;;24.5;56.1
57374;BME280;43964;53.890;25.340;2022-08-01T13:10:38;1018.5;;;24.4;56
57374;BME280;43964;53.890;25.340;2022-08-01T13:15:38;1018.5;;;24.5;55.8
57374;BME280;43964;53.890;25.340;2022-08-01T13:20:38;1018.5;;;24.7;55
57374;BME280;43964;53.890;25.340;2022-08-01T13:25:54;1018.5;;;24.8;54.8
57374;BME280;43964;53.890;25.340;2022-08-01T13:30:38;1018.5;;;24.9;54.9
57374;BME280;43964;53.890;25.340;2022-08-01T13:35:38;1018.5;;;24.6;54.6
57374;BME280;43964;53.890;25.340;2022-08-01T13:40:38;1018.5;;;24.5;55
57374;BME280;43964;53.890;25.340;2022-08-01T13:45:38;1018.5;;;24.2;55.7
57374;BME280;43964;53.890;25.340;2022-08-01T13:50:38;1018.5;;;24.2;55.7
57374;BME280;43964;53.890;25.340;2022-08-01T13:55:38;1018.5;;;24.2;55.8
57374;BME280;43964;53.890;25.340;2022-08-01T14:00:38;1018.6;;;24.2;55.6
57374;BME280;43964;53.890;25.340;2022-08-01T14:05:38;1018.6;;;24.2;55.5
57374;BME280;43964;53.890;25.340;2022-08-01T14:10:38;1018.6;;;24;55.9
57374;BME280;43964;53.890;25.340;2022-08-01T14:15:38;1018.6;;;23.9;56.4
57374;BME280;43964;53.890;25.340;2022-08-01T14:20:38;1018.7;;;23.9;56.6
57374;BME280;43964;53.890;25.340;2022-08-01T14:25:38;1018.7;;;23.8;56.8
57374;BME280;43964;53.890;25.340;2022-08-01T14:30:38;1018.7;;;23.6;57.3
57374;BME280;43964;53.890;25.340;2022-08-01T14:35:39;1018.8;;;23.4;57.6
57374;BME280;43964;53.890;25.340;2022-08-01T14:40:38;1018.8;;;23.2;58.4
57374;BME280;43964;53.890;25.340;2022-08-01T14:45:38;1018.8;;;23.2;58.4
57374;BME280;43964;53.890;25.340;2022-08-01T14:50:38;1018.8;;;23.5;57.6
57374;BME280;43964;53.890;25.340;2022-08-01T14:55:38;1018.9;;;23.7;56.9
57374;BME280;43964;53.890;25.340;2022-08-01T15:00:38;1018.9;;;23.8;56.5
57374;BME280;43964;53.890;25.340;2022-08-01T15:05:38;1018.9;;;23.8;56.5
57374;BME280;43964;53.890;25.340;2022-08-01T15:10:38;1019;;;23.5;56.9
57374;BME280;43964;53.890;25.340;2022-08-01T15:15:38;1019;;;23.4;57.6
57374;BME280;43964;53.890;25.340;2022-08-01T15:20:38;1019;;;23.3;57.9
57374;BME280;43964;53.890;25.340;2022-08-01T15:25:38;1019;;;23.3;57.9
57374;BME280;43964;53.890;25.340;2022-08-01T15:30:38;1019;;;23.3;57.9
57374;BME280;43964;53.890;25.340;2022-08-01T15:35:38;1019.1;;;23;58.4
57374;BME280;43964;53.890;25.340;2022-08-01T15:40:38;1019.1;;;23;58.4
57374;BME280;43964;53.890;25.340;2022-08-01T15:45:38;1019.1;;;23.1;58
57374;BME280;43964;53.890;25.340;2022-08-01T15:50:38;1019.1;;;23.3;57.8
57374;BME280;43964;53.890;25.340;2022-08-01T15:55:38;1019.2;;;23.3;57.6
57374;BME280;43964;53.890;25.340;2022-08-01T16:00:38;1019.1;;;23.4;57.6
57374;BME280;43964;53.890;25.340;2022-08-01T16:05:38;1019.2;;;23.5;57.3
57374;BME280;43964;53.890;25.340;2022-08-01T16:10:38;1019.2;;;23.4;57.5
57374;BME280;43964;53.890;25.340;2022-08-01T16:15:38;1019.3;;;23.3;57.6
57374;BME280;43964;53.890;25.340;2022-08-01T16:20:38;1019.4;;;23.2;57.7
57374;BME280;43964;53.890;25.340;2022-08-01T16:25:38;1019.4;;;23.2;58
57374;BME280;43964;53.890;25.340;2022-08-01T16:30:38;1019.4;;;23.1;58.2
57374;BME280;43964;53.890;25.340;2022-08-01T16:35:38;1019.4;;;23.1;58.4
57374;BME280;43964;53.890;25.340;2022-08-01T16:40:38;1019.4;;;23.1;58.4
57374;BME280;43964;53.890;25.340;2022-08-01T16:45:38;1019.5;;;23.2;58.4
57374;BME280;43964;53.890;25.340;2022-08-01T16:50:38;1019.5;;;23.3;58.1
57374;BME280;43964;53.890;25.340;2022-08-01T16:55:38;1019.5;;;23.3;57.7
57374;BME280;43964;53.890;25.340;2022-08-01T17:00:38;1019.6;;;23.4;57.6
57374;BME280;43964;53.890;25.340;2022-08-01T17:05:38;1019.6;;;23.4;57.4
57374;BME280;43964;53.890;25.340;2022-08-01T17:10:38;1019.6;;;23.4;57.4
57374;BME280;43964;53.890;25.340;2022-08-01T17:15:38;1019.7;;;23.3;58
57374;BME280;43964;53.890;25.340;2022-08-01T17:20:38;1019.7;;;23.2;58
57374;BME280;43964;53.890;25.340;2022-08-01T17:25:38;1019.7;;;23;58.6
57374;BME280;43964;53.890;25.340;2022-08-01T17:30:38;1019.7;;;23;58.6
57374;BME280;43964;53.890;25.340;2022-08-01T17:35:38;1019.7;;;22.7;59.4
57374;BME280;43964;53.890;25.340;2022-08-01T17:40:38;1019.7;;;22.6;59.8
57374;BME280;43964;53.890;25.340;2022-08-01T17:45:39;1019.8;;;22.5;60.1
57374;BME280;43964;53.890;25.340;2022-08-01T17:50:38;1019.8;;;22.4;60
57374;BME280;43964;53.890;25.340;2022-08-01T17:55:38;1019.8;;;22.3;60.8
57374;BME280;43964;53.890;25.340;2022-08-01T18:00:38;1019.9;;;22.1;60.9
57374;BME280;43964;53.890;25.340;2022-08-01T18:05:38;1019.9;;;22.1;61.1
57374;BME280;43964;53.890;25.340;2022-08-01T18:10:38;1019.9;;;21.8;62.2
57374;BME280;43964;53.890;25.340;2022-08-01T18:15:38;1019.9;;;21.8;62.6
57374;BME280;43964;53.890;25.340;2022-08-01T18:20:38;1019.9;;;21.7;62.8
57374;BME280;43964;53.890;25.340;2022-08-01T18:25:38;1020;;;21.6;62.9
57374;BME280;43964;53.890;25.340;2022-08-01T18:30:38;1020.1;;;21.5;63.4
57374;BME280;43964;53.890;25.340;2022-08-01T18:35:38;1020.1;;;21.5;63.7
57374;BME280;43964;53.890;25.340;2022-08-01T18:40:38;1020.2;;;21.5;63.9
57374;BME280;43964;53.890;25.340;2022-08-01T18:45:38;1020.3;;;21.4;64.2
57374;BME280;43964;53.890;25.340;2022-08-01T18:50:38;1020.4;;;21.4;64.1
57374;BME280;43964;53.890;25.340;2022-08-01T18:55:38;1020.4;;;21.4;64.1
57374;BME280;43964;53.890;25.340;2022-08-01T19:00:38;1020.4;;;21.4;64.6
57374;BME280;43964;53.890;25.340;2022-08-01T19:05:38;1020.4;;;21.4;64.7
57374;BME280;43964;53.890;25.340;2022-08-01T19:10:38;1020.5;;;21.3;64.7
57374;BME280;43964;53.890;25.340;2022-08-01T19:15:38;1020.5;;;21.3;64.5
57374;BME280;43964;53.890;25.340;2022-08-01T19:20:38;1020.5;;;21.4;64.5
57374;BME280;43964;53.890;25.340;2022-08-01T19:25:38;1020.6;;;21.3;65.2
57374;BME280;43964;53.890;25.340;2022-08-01T19:30:38;1020.6;;;21.3;65.2
57374;BME280;43964;53.890;25.340;2022-08-01T19:35:38;1020.6;;;21.3;65.4
57374;BME280;43964;53.890;25.340;2022-08-01T19:40:38;1020.6;;;21.3;65.4
57374;BME280;43964;53.890;25.340;2022-08-01T19:45:39;1020.6;;;21.3;65.3
57374;BME280;43964;53.890;25.340;2022-08-01T19:50:39;1020.6;;;21.3;65.3
57374;BME280;43964;53.890;25.340;2022-08-01T19:55:38;1020.6;;;21.3;65.5
57374;BME280;43964;53.890;25.340;2022-08-01T20:00:38;1020.6;;;21.3;65.6
57374;BME280;43964;53.890;25.340;2022-08-01T20:05:38;1020.6;;;21.3;65.7
57374;BME280;43964;53.890;25.340;2022-08-01T20:10:38;1020.5;;;21.3;65.5
57374;BME280;43964;53.890;25.340;2022-08-01T20:15:38;1020.5;;;21.2;65.7
57374;BME280;43964;53.890;25.340;2022-08-01T20:20:38;1020.5;;;21.2;66
57374;BME280;43964;53.890;25.340;2022-08-01T20:25:38;1020.5;;;21.1;66
57374;BME280;43964;53.890;25.340;2022-08-01T20:30:38;1020.5;;;21.1;66
57374;BME280;43964;53.890;25.340;2022-08-01T20:35:38;1020.5;;;21.1;66
57374;BME280;43964;53.890;25.340;2022-08-01T20:40:38;1020.4;;;20.9;66.5
57374;BME280;43964;53.890;25.340;2022-08-01T20:45:38;1020.4;;;20.7;67.3
57374;BME280;43964;53.890;25.340;2022-08-01T20:50:38;1020.5;;;20.7;67.2
57374;BME280;43964;53.890;25.340;2022-08-01T20:55:48;1020.5;;;20.6;67.1
57374;BME280;43964;53.890;25.340;2022-08-01T21:00:38;1020.6;;;20.6;67.3
57374;BME280;43964;53.890;25.340;2022-08-01T21:05:42;1020.6;;;20.5;68
57374;BME280;43964;53.890;25.340;2022-08-01T21:10:39;1020.5;;;20.6;67.7
57374;BME280;43964;53.890;25.340;2022-08-01T21:15:40;1020.5;;;20.5;67.6
57374;BME280;43964;53.890;25.340;2022-08-01T21:20:38;1020.6;;;20.5;67.7
57374;BME280;43964;53.890;25.340;2022-08-01T21:25:38;1020.6;;;20.4;67.6
57374;BME280;43964;53.890;25.340;2022-08-01T21:30:38;1020.6;;;20.3;67.8
57374;BME280;43964;53.890;25.340;2022-08-01T21:35:38;1020.7;;;20.3;68
57374;BME280;43964;53.890;25.340;2022-08-01T21:40:38;1020.8;;;20.2;68.4
57374;BME280;43964;53.890;25.340;2022-08-01T21:45:38;1020.8;;;20.1;67.9
57374;BME280;43964;53.890;25.340;2022-08-01T21:50:40;1020.8;;;20.1;68.3
57374;BME280;43964;53.890;25.340;2022-08-01T21:55:43;1020.8;;;20;68.3
57374;BME280;43964;53.890;25.340;2022-08-01T22:00:38;1020.8;;;20;68.5
57374;BME280;43964;53.890;25.340;2022-08-01T22:05:38;1020.8;;;20;68.7
57374;BME280;43964;53.890;25.340;2022-08-01T22:10:38;1020.8;;;20;68.7
57374;BME280;43964;53.890;25.340;2022-08-01T22:15:38;1020.9;;;19.9;68.6
57374;BME280;43964;53.890;25.340;2022-08-01T22:20:38;1021;;;19.9;68.5
57374;BME280;43964;53.890;25.340;2022-08-01T22:25:38;1021;;;19.9;68.5
57374;BME280;43964;53.890;25.340;2022-08-01T22:30:39;1021;;;19.9;68.6
57374;BME280;43964;53.890;25.340;2022-08-01T22:35:38;1021;;;19.8;68.7
57374;BME280;43964;53.890;25.340;2022-08-01T22:40:39;1021;;;19.7;68.7
57374;BME280;43964;53.890;25.340;2022-08-01T22:45:43;1021;;;19.7;68.8
57374;BME280;43964;53.890;25.340;2022-08-01T22:50:38;1021;;;19.7;68.8
57374;BME280;43964;53.890;25.340;2022-08-01T22:55:38;1021;;;19.5;68.7
57374;BME280;43964;53.890;25.340;2022-08-01T23:00:39;1021;;;19.4;69.2
57374;BME280;43964;53.890;25.340;2022-08-01T23:05:40;1021;;;19.4;69
57374;BME280;43964;53.890;25.340;2022-08-01T23:10:38;1021;;;19.4;69.1
57374;BME280;43964;53.890;25.340;2022-08-01T23:15:38;1021.1;;;19.4;69.2
57374;BME280;43964;53.890;25.340;2022-08-01T23:20:38;1021.1;;;19.3;69
57374;BME280;43964;53.890;25.340;2022-08-01T23:25:38;1021.1;;;19.2;69.3
57374;BME280;43964;53.890;25.340;2022-08-01T23:30:38;1021.2;;;19.2;69.6
57374;BME280;43964;53.890;25.340;2022-08-01T23:35:38;1021.2;;;19.2;69.3
57374;BME280;43964;53.890;25.340;2022-08-01T23:40:38;1021.2;;;19.2;69.3
57374;BME280;43964;53.890;25.340;2022-08-01T23:45:38;1021.2;;;19.1;69.2
57374;BME280;43964;53.890;25.340;2022-08-01T23:50:38;1021.2;;;19;69.1
57374;BME280;43964;53.890;25.340;2022-08-01T23:55:38;1021.2;;;19;69.2
